createdAt,value
2023-02-22T00:00:00.000Z,66.88
2023-02-22T00:15:00.000Z,67.48
2023-02-22T00:30:00.000Z,66.82
2023-02-22T00:45:00.000Z,68.65
2023-02-22T01:00:00.000Z,70.03
2023-02-22T01:15:00.000Z,69.4
2023-02-22T01:30:00.000Z,71.4
2023-02-22T01:45:00.000Z,72.8
2023-02-22T02:00:00.000Z,73.89
2023-02-22T02:15:00.000Z,76.27
2023-02-22T02:30:00.000Z,77.54
2023-02-22T02:45:00.000Z,76.93
2023-02-22T03:00:00.000Z,76.55
2023-02-22T03:15:00.000Z,76.58
2023-02-22T03:30:00.000Z,77
2023-02-22T03:45:00.000Z,77.51
2023-02-22T04:00:00.000Z,77.51
2023-02-22T04:15:00.000Z,77.24
2023-02-22T04:30:00.000Z,77.12
2023-02-22T04:45:00.000Z,78.26
2023-02-22T05:00:00.000Z,79.67
2023-02-22T05:15:00.000Z,80.33
2023-02-22T05:30:00.000Z,80.64
2023-02-22T05:45:00.000Z,79.77
2023-02-22T06:00:00.000Z,78.96
2023-02-22T06:15:00.000Z,78.83
2023-02-22T06:30:00.000Z,77.33
2023-02-22T06:45:00.000Z,75.54
2023-02-22T07:00:00.000Z,71.19
2023-02-22T07:15:00.000Z,67.19
2023-02-22T07:30:00.000Z,61.09
2023-02-22T07:45:00.000Z,57.25
2023-02-22T08:00:00.000Z,51.29
2023-02-22T08:15:00.000Z,49.38
2023-02-22T08:30:00.000Z,52.44
2023-02-22T08:45:00.000Z,42.71
2023-02-22T09:00:00.000Z,39.69
2023-02-22T09:15:00.000Z,39.67
2023-02-22T09:30:00.000Z,38.35
2023-02-22T09:45:00.000Z,35.22
2023-02-22T10:00:00.000Z,34.21
2023-02-22T10:15:00.000Z,34.32
2023-02-22T10:30:00.000Z,34.65
2023-02-22T10:45:00.000Z,36.15
2023-02-22T11:00:00.000Z,35.75
2023-02-22T11:15:00.000Z,36.06
2023-02-22T11:30:00.000Z,36.02
2023-02-22T11:45:00.000Z,36.39
2023-02-22T12:00:00.000Z,37.32
2023-02-22T12:15:00.000Z,38.82
2023-02-22T12:30:00.000Z,39.88
2023-02-22T12:45:00.000Z,41.49
2023-02-22T13:00:00.000Z,44.11
2023-02-22T13:15:00.000Z,44.72
2023-02-22T13:30:00.000Z,45.48
2023-02-22T13:45:00.000Z,46.02
2023-02-22T14:00:00.000Z,47.15
2023-02-22T14:15:00.000Z,46.56
2023-02-22T14:30:00.000Z,46.68
2023-02-22T14:45:00.000Z,46.63
2023-02-22T15:00:00.000Z,47.31
2023-02-22T15:15:00.000Z,48.16
2023-02-22T15:30:00.000Z,49.8
2023-02-22T15:45:00.000Z,51.8
2023-02-22T16:00:00.000Z,53.57
2023-02-22T16:15:00.000Z,54.84
2023-02-22T16:30:00.000Z,56.19
2023-02-22T16:45:00.000Z,57.59
2023-02-22T17:00:00.000Z,59.99
2023-02-22T17:15:00.000Z,61.46
2023-02-22T17:30:00.000Z,63.37
2023-02-22T17:45:00.000Z,64.39
2023-02-22T18:00:00.000Z,65.38
2023-02-22T18:15:00.000Z,66.19
2023-02-22T18:30:00.000Z,67.93
2023-02-22T18:45:00.000Z,70.11
2023-02-22T19:00:00.000Z,71.41
2023-02-22T19:15:00.000Z,72.37
2023-02-22T19:30:00.000Z,73.28
2023-02-22T19:45:00.000Z,73.62
2023-02-22T20:00:00.000Z,72.81
2023-02-22T20:15:00.000Z,73.1
2023-02-22T20:30:00.000Z,74.49
2023-02-22T20:45:00.000Z,72.94
2023-02-22T21:00:00.000Z,71.15
2023-02-22T21:15:00.000Z,69.81
2023-02-22T21:30:00.000Z,68.67
2023-02-22T21:45:00.000Z,70.49
2023-02-22T22:00:00.000Z,71.93
2023-02-22T22:15:00.000Z,70.74
2023-02-22T22:30:00.000Z,69.89
2023-02-22T22:45:00.000Z,69.55
2023-02-22T23:00:00.000Z,69.45
2023-02-22T23:15:00.000Z,71.77
2023-02-22T23:30:00.000Z,73.61
2023-02-22T23:45:00.000Z,74.32
